Susan Elizabeth — WDG4681 — position and weather

sailwx.info

Track history (hours):
 
Tides and Currents Weather Stations Pressure Air Temp Water Temp Dewpoint Dewpoint Depression Visibility Wind Speed Wind Dir Waves Ship Positions

Susan Elizabeth

Owner: Kirby Inland Marine, LP, Houston, TX. More information available from US FCC via Universal Licensing System and Coast Guard Vessel Documentation Center.

Last reported at 2018-Jun-07 13:49 UTC. Time now 2018-Jun-23 10:20 UTC.
Position N 32°57' W 091°09'.
Warning: this ship's position is 15 days out of date.

Length 23 m; draft 3 m.

Type: Other ship. MMSI: 367022350.

Date/timePositionNaut miles runAvg speedWind from/ knotsBaromVisibWave heightAir tempDewpointWater temp
2018-Jun-07 13:49N 32°57' W 091°09'1 3.1
2018-Jun-07 13:26N 32°57' W 091°07'12 3.4
2018-Jun-07 09:51N 32°45' W 091°09'1 4.1
2018-Jun-07 09:29N 32°44' W 091°08'2 3.9
2018-Jun-07 09:00N 32°44' W 091°06'2 4.4
2018-Jun-07 08:30N 32°44' W 091°04'5 3.7
2018-Jun-07 07:09N 32°40' W 091°08'1 3.4
2018-Jun-07 07:00N 32°40' W 091°08'2 3.5
2018-Jun-07 06:30N 32°38' W 091°09'2 4.1
2018-Jun-07 06:00N 32°36' W 091°09'2 4.1
2018-Jun-07 05:30N 32°35' W 091°07'2 4.0
2018-Jun-07 05:00N 32°33' W 091°06'2 4.5
2018-Jun-07 04:30N 32°31' W 091°07'2 4.7
2018-Jun-07 04:00N 32°28' W 091°06'2 4.4
2018-Jun-07 03:30N 32°27' W 091°05'2 4.3
2018-Jun-07 03:00N 32°26' W 091°02'2 4.4
2018-Jun-07 02:30N 32°25' W 090°60'1 2.8
2018-Jun-07 02:01N 32°24' W 090°60'2 4.5
2018-Jun-07 01:30N 32°22' W 091°00'2 4.4
2018-Jun-07 01:00N 32°21' W 090°58'2 4.3
2018-Jun-07 00:30N 32°21' W 090°55'2 3.6
2018-Jun-07 00:00N 32°19' W 090°54'2 4.7
2018-Jun-06 23:30N 32°17' W 090°56'2 4.3
2018-Jun-06 23:00N 32°16' W 090°58'2 4.2
2018-Jun-06 22:30N 32°14' W 090°59'2 4.4
2018-Jun-06 22:00N 32°12' W 090°60'2 4.2
2018-Jun-06 21:30N 32°09' W 091°00'2 3.8
2018-Jun-06 21:00N 32°08' W 091°01'2 3.6
2018-Jun-06 20:30N 32°07' W 091°03'3 5.0
2018-Jun-06 19:57N 32°08' W 091°06'50 3.5
2018-Jun-06 05:33N 31°22' W 091°29'16 0.4
2018-Jun-04 13:35N 31°38' W 091°24'1 9.4
2018-Jun-04 13:29N 31°38' W 091°24'5 9.5
2018-Jun-04 13:00N 31°43' W 091°23'5 9.8
2018-Jun-04 12:30N 31°48' W 091°22'5 8.7
2018-Jun-04 11:59N 31°51' W 091°19'5 9.5
2018-Jun-04 11:30N 31°53' W 091°13'5 9.8
2018-Jun-04 11:00N 31°57' W 091°11'5 8.8
2018-Jun-04 10:29N 31°59' W 091°07'5 9.7
2018-Jun-04 10:00N 32°03' W 091°03'5 9.7
2018-Jun-04 09:31N 32°07' W 091°07'5 9.1
2018-Jun-04 09:01N 32°07' W 091°01'5 9.9
2018-Jun-04 08:31N 32°12' W 090°59'5 9.6
2018-Jun-04 08:01N 32°17' W 090°57'4 8.9
2018-Jun-04 07:30N 32°20' W 090°54'5 9.9
2018-Jun-04 07:00N 32°21' W 091°00'4 8.6
2018-Jun-04 06:31N 32°26' W 091°01'510.0
2018-Jun-04 06:01N 32°28' W 091°06'5 9.8
2018-Jun-04 05:28N 32°33' W 091°06'4 9.8
2018-Jun-04 05:00N 32°37' W 091°09'4 8.5
2018-Jun-04 04:29N 32°40' W 091°06'4 7.6
2018-Jun-04 04:00N 32°44' W 091°04'5 8.0
2018-Jun-04 03:22N 32°47' W 091°09'4 9.8
2018-Jun-04 02:55N 32°51' W 091°08'  
Track history (hours):
 
Tides and Currents Weather Stations Pressure Air Temp Water Temp Dewpoint Dewpoint Depression Visibility Wind Speed Wind Dir Waves Ship Positions

Susan Elizabeth

Owner: Kirby Inland Marine, LP, Houston, TX. More information available from US FCC via Universal Licensing System and Coast Guard Vessel Documentation Center.

Last reported at 2018-Jun-07 13:49 UTC. Time now 2018-Jun-23 10:20 UTC.
Position N 32°57' W 091°09'.
Warning: this ship's position is 15 days out of date.

Length 23 m; draft 3 m.

Type: Other ship. MMSI: 367022350.

Date/timePositionNaut miles runAvg speedWind from/ knotsBaromVisibWave heightAir tempDewpointWater temp
2018-Jun-07 13:49N 32°57' W 091°09'1 3.1
2018-Jun-07 13:26N 32°57' W 091°07'12 3.4
2018-Jun-07 09:51N 32°45' W 091°09'1 4.1
2018-Jun-07 09:29N 32°44' W 091°08'2 3.9
2018-Jun-07 09:00N 32°44' W 091°06'2 4.4
2018-Jun-07 08:30N 32°44' W 091°04'5 3.7
2018-Jun-07 07:09N 32°40' W 091°08'1 3.4
2018-Jun-07 07:00N 32°40' W 091°08'2 3.5
2018-Jun-07 06:30N 32°38' W 091°09'2 4.1
2018-Jun-07 06:00N 32°36' W 091°09'2 4.1
2018-Jun-07 05:30N 32°35' W 091°07'2 4.0
2018-Jun-07 05:00N 32°33' W 091°06'2 4.5
2018-Jun-07 04:30N 32°31' W 091°07'2 4.7
2018-Jun-07 04:00N 32°28' W 091°06'2 4.4
2018-Jun-07 03:30N 32°27' W 091°05'2 4.3
2018-Jun-07 03:00N 32°26' W 091°02'2 4.4
2018-Jun-07 02:30N 32°25' W 090°60'1 2.8
2018-Jun-07 02:01N 32°24' W 090°60'2 4.5
2018-Jun-07 01:30N 32°22' W 091°00'2 4.4
2018-Jun-07 01:00N 32°21' W 090°58'2 4.3
2018-Jun-07 00:30N 32°21' W 090°55'2 3.6
2018-Jun-07 00:00N 32°19' W 090°54'2 4.7
2018-Jun-06 23:30N 32°17' W 090°56'2 4.3
2018-Jun-06 23:00N 32°16' W 090°58'2 4.2
2018-Jun-06 22:30N 32°14' W 090°59'2 4.4
2018-Jun-06 22:00N 32°12' W 090°60'2 4.2
2018-Jun-06 21:30N 32°09' W 091°00'2 3.8
2018-Jun-06 21:00N 32°08' W 091°01'2 3.6
2018-Jun-06 20:30N 32°07' W 091°03'3 5.0
2018-Jun-06 19:57N 32°08' W 091°06'50 3.5
2018-Jun-06 05:33N 31°22' W 091°29'16 0.4
2018-Jun-04 13:35N 31°38' W 091°24'1 9.4
2018-Jun-04 13:29N 31°38' W 091°24'5 9.5
2018-Jun-04 13:00N 31°43' W 091°23'5 9.8
2018-Jun-04 12:30N 31°48' W 091°22'5 8.7
2018-Jun-04 11:59N 31°51' W 091°19'5 9.5
2018-Jun-04 11:30N 31°53' W 091°13'5 9.8
2018-Jun-04 11:00N 31°57' W 091°11'5 8.8
2018-Jun-04 10:29N 31°59' W 091°07'5 9.7
2018-Jun-04 10:00N 32°03' W 091°03'5 9.7
2018-Jun-04 09:31N 32°07' W 091°07'5 9.1
2018-Jun-04 09:01N 32°07' W 091°01'5 9.9
2018-Jun-04 08:31N 32°12' W 090°59'5 9.6
2018-Jun-04 08:01N 32°17' W 090°57'4 8.9
2018-Jun-04 07:30N 32°20' W 090°54'5 9.9
2018-Jun-04 07:00N 32°21' W 091°00'4 8.6
2018-Jun-04 06:31N 32°26' W 091°01'510.0
2018-Jun-04 06:01N 32°28' W 091°06'5 9.8
2018-Jun-04 05:28N 32°33' W 091°06'4 9.8
2018-Jun-04 05:00N 32°37' W 091°09'4 8.5
2018-Jun-04 04:29N 32°40' W 091°06'4 7.6
2018-Jun-04 04:00N 32°44' W 091°04'5 8.0
2018-Jun-04 03:22N 32°47' W 091°09'4 9.8
2018-Jun-04 02:55N 32°51' W 091°08'  

Dump ship's entire track history